createdAt,value
2023-01-19T00:02:50.753Z,-2.99
2023-01-19T00:06:52.253Z,-3.08
2023-01-19T00:10:53.872Z,-3.15
2023-01-19T00:14:55.290Z,-3.28
2023-01-19T00:18:56.739Z,-3.19
2023-01-19T00:22:58.899Z,-3.36
2023-01-19T00:27:03.523Z,-3.52
2023-01-19T00:31:05.118Z,-3.45
2023-01-19T00:35:06.797Z,-3.68
2023-01-19T00:39:08.591Z,-3.68
2023-01-19T00:43:10.060Z,-3.70
2023-01-19T00:47:11.583Z,-3.54
2023-01-19T00:51:13.071Z,-3.46
2023-01-19T00:55:16.374Z,-3.41
2023-01-19T00:59:17.814Z,-3.51
2023-01-19T01:03:19.327Z,-3.61
2023-01-19T01:07:22.227Z,-3.67
2023-01-19T01:11:23.659Z,-3.72
2023-01-19T01:15:26.622Z,-3.67
2023-01-19T01:19:28.705Z,-3.58
2023-01-19T01:23:30.185Z,-3.58
2023-01-19T01:27:31.655Z,-3.70
2023-01-19T01:31:33.172Z,-3.84
2023-01-19T01:35:34.714Z,-3.74
2023-01-19T01:39:36.434Z,-3.72
2023-01-19T01:43:45.269Z,-3.82
2023-01-19T01:47:49.056Z,-3.72
2023-01-19T01:51:53.455Z,-3.83
2023-01-19T01:55:55.412Z,-3.72
2023-01-19T01:59:58.456Z,-4.03
2023-01-19T02:03:59.980Z,-4.49
2023-01-19T02:08:58.492Z,-4.22
2023-01-19T02:13:19.575Z,-4.03
2023-01-19T02:17:21.620Z,-4.22
2023-01-19T02:21:33.829Z,-4.31
2023-01-19T02:25:35.319Z,-4.25
2023-01-19T02:29:36.887Z,-4.15
2023-01-19T02:33:38.601Z,-4.38
2023-01-19T02:37:41.250Z,-4.32
2023-01-19T02:41:51.306Z,-4.24
2023-01-19T02:45:53.145Z,-4.18
2023-01-19T02:49:58.749Z,-4.26
2023-01-19T02:54:16.227Z,-4.13
2023-01-19T02:58:56.007Z,-4.29
2023-01-19T03:03:11.736Z,-4.38
2023-01-19T03:07:26.039Z,-4.57
2023-01-19T03:11:33.706Z,-4.52
2023-01-19T03:15:41.050Z,-4.59
2023-01-19T03:19:46.223Z,-4.55
2023-01-19T03:23:50.801Z,-4.78
2023-01-19T03:27:55.536Z,-4.67
2023-01-19T03:32:01.104Z,-4.53
2023-01-19T03:36:07.951Z,-4.81
2023-01-19T03:40:11.719Z,-4.53
2023-01-19T03:44:13.870Z,-4.59
2023-01-19T03:48:15.820Z,-4.59
2023-01-19T03:52:17.365Z,-4.73
2023-01-19T03:56:20.553Z,-4.89
2023-01-19T04:00:22.094Z,-4.77
2023-01-19T04:04:25.469Z,-4.88
2023-01-19T04:08:26.895Z,-4.72
2023-01-19T04:12:28.338Z,-4.73
2023-01-19T04:16:29.915Z,-4.83
2023-01-19T04:20:31.342Z,-4.82
2023-01-19T04:24:32.774Z,-4.92
2023-01-19T04:28:36.895Z,-4.80
2023-01-19T04:32:38.492Z,-4.90
2023-01-19T04:36:40.398Z,-4.91
2023-01-19T04:40:41.822Z,-4.89
2023-01-19T04:44:43.218Z,-4.93
2023-01-19T04:48:44.678Z,-5.03
2023-01-19T04:52:46.303Z,-5.00
2023-01-19T04:56:48.234Z,-5.02
2023-01-19T05:00:51.123Z,-4.88
2023-01-19T05:04:53.210Z,-4.85
2023-01-19T05:08:54.606Z,-4.89
2023-01-19T05:12:56.181Z,-4.91
2023-01-19T05:16:57.879Z,-4.90
2023-01-19T05:20:59.314Z,-4.96
2023-01-19T05:25:01.681Z,-4.88
2023-01-19T05:29:03.430Z,-4.94
2023-01-19T05:33:05.372Z,-4.92
2023-01-19T05:37:06.865Z,-4.89
2023-01-19T05:41:08.261Z,-4.80
2023-01-19T05:45:10.062Z,-4.80
2023-01-19T05:49:12.799Z,-4.84
2023-01-19T05:53:14.227Z,-4.97
2023-01-19T05:57:15.653Z,-4.97
2023-01-19T06:01:17.222Z,-4.88
2023-01-19T06:05:18.699Z,-4.81
2023-01-19T06:09:20.135Z,-5.00
2023-01-19T06:13:21.654Z,-4.90
2023-01-19T06:17:23.062Z,-4.69
2023-01-19T06:21:24.597Z,-4.81
2023-01-19T06:25:26.019Z,-4.78
2023-01-19T06:29:29.478Z,-4.66
2023-01-19T06:33:31.481Z,-4.80
2023-01-19T06:37:33.339Z,-5.13
2023-01-19T06:41:34.925Z,-5.11
2023-01-19T06:45:36.693Z,-5.01
2023-01-19T06:49:38.678Z,-5.12
2023-01-19T06:53:40.152Z,-5.09
2023-01-19T06:57:41.649Z,-5.09
2023-01-19T07:01:43.154Z,-5.04
2023-01-19T07:05:44.821Z,-5.21
2023-01-19T07:09:46.316Z,-5.20
2023-01-19T07:13:51.608Z,-5.06
2023-01-19T07:17:53.088Z,-4.99
2023-01-19T07:21:54.555Z,-5.00
2023-01-19T07:25:57.544Z,-5.01
2023-01-19T07:30:01.062Z,-4.99
2023-01-19T07:34:02.737Z,-5.14
2023-01-19T07:38:04.296Z,-5.11
2023-01-19T07:42:06.774Z,-4.90
2023-01-19T07:46:08.372Z,-4.89
2023-01-19T07:50:11.340Z,-4.88
2023-01-19T07:54:12.912Z,-4.91
2023-01-19T07:58:14.771Z,-4.84
2023-01-19T08:02:17.278Z,-4.89
2023-01-19T08:06:24.497Z,-4.73
2023-01-19T08:10:27.876Z,-4.55
2023-01-19T08:14:29.448Z,-4.51
2023-01-19T08:18:31.322Z,-4.24
2023-01-19T08:22:32.803Z,-4.10
2023-01-19T08:26:35.483Z,-4.03
2023-01-19T08:30:38.418Z,-4.04
2023-01-19T08:34:39.880Z,-3.89
2023-01-19T08:38:44.020Z,-3.89
2023-01-19T08:42:45.602Z,-3.81
2023-01-19T08:46:47.505Z,-3.77
2023-01-19T08:50:50.271Z,-3.74
2023-01-19T08:54:51.777Z,-3.54
2023-01-19T08:59:07.570Z,-3.39
2023-01-19T09:03:13.687Z,-3.30
2023-01-19T09:07:15.164Z,-2.90
2023-01-19T09:11:17.480Z,-3.13
2023-01-19T09:15:19.047Z,-2.93
2023-01-19T09:19:20.551Z,-3.15
2023-01-19T09:23:22.690Z,-2.72
2023-01-19T09:27:24.644Z,-2.74
2023-01-19T09:31:26.206Z,-2.33
2023-01-19T09:35:27.708Z,-2.07
2023-01-19T09:39:29.239Z,-2.24
2023-01-19T09:43:34.519Z,-2.08
2023-01-19T09:47:37.438Z,-1.84
2023-01-19T09:51:43.648Z,-1.65
2023-01-19T09:55:45.151Z,-1.29
2023-01-19T09:59:50.722Z,-1.55
2023-01-19T10:04:09.474Z,-1.23
2023-01-19T10:08:33.858Z,-1.06
2023-01-19T10:13:04.036Z,-0.95
2023-01-19T10:17:08.541Z,-1.34
2023-01-19T10:21:31.363Z,-0.34
2023-01-19T10:25:33.471Z,-0.14
2023-01-19T10:29:37.682Z,-0.80
2023-01-19T10:33:39.451Z,-0.52
2023-01-19T10:37:41.944Z,0.03
2023-01-19T10:41:49.235Z,-0.49
2023-01-19T10:45:51.115Z,0.28
2023-01-19T10:49:52.895Z,0.44
2023-01-19T10:54:03.190Z,0.68
2023-01-19T10:58:25.587Z,0.36
2023-01-19T11:02:29.866Z,0.82
2023-01-19T11:06:33.866Z,0.00
2023-01-19T11:10:35.554Z,0.71
2023-01-19T11:14:38.325Z,1.12
2023-01-19T11:18:41.273Z,1.20
2023-01-19T11:22:42.744Z,1.64
2023-01-19T11:26:48.418Z,1.36
2023-01-19T11:30:57.735Z,2.00
2023-01-19T11:34:59.846Z,1.95
2023-01-19T11:39:24.265Z,2.22
2023-01-19T11:43:39.719Z,1.50
2023-01-19T11:47:51.686Z,2.92
2023-01-19T11:52:02.386Z,2.45
2023-01-19T11:56:14.510Z,2.45
2023-01-19T12:00:36.017Z,2.52
2023-01-19T12:04:40.370Z,2.76
2023-01-19T12:09:09.840Z,3.40
2023-01-19T12:13:21.516Z,3.72
2023-01-19T12:17:27.717Z,2.49
2023-01-19T12:21:29.259Z,3.06
2023-01-19T12:26:00.191Z,3.86
2023-01-19T12:30:01.941Z,4.16
2023-01-19T12:34:31.122Z,4.34
2023-01-19T12:38:44.345Z,3.85
2023-01-19T12:43:06.098Z,3.75
2023-01-19T12:47:10.392Z,3.30
2023-01-19T12:51:23.280Z,3.48
2023-01-19T12:55:37.851Z,3.90
2023-01-19T12:59:39.640Z,3.29
2023-01-19T13:04:09.594Z,3.68
2023-01-19T13:08:14.045Z,3.12
2023-01-19T13:12:15.409Z,2.81
2023-01-19T13:16:20.082Z,3.25
2023-01-19T13:20:36.497Z,3.11
2023-01-19T13:25:05.972Z,3.08
2023-01-19T13:29:36.176Z,3.35
2023-01-19T13:33:48.027Z,3.31
2023-01-19T13:37:51.011Z,2.83
2023-01-19T13:41:56.908Z,2.70
2023-01-19T13:45:59.822Z,2.42
2023-01-19T13:50:02.038Z,2.62
2023-01-19T13:54:05.573Z,2.76
2023-01-19T13:58:20.811Z,2.67
2023-01-19T14:02:22.401Z,2.80
2023-01-19T14:06:37.736Z,2.78
2023-01-19T14:11:02.075Z,2.38
2023-01-19T14:15:05.308Z,2.20
2023-01-19T14:19:07.160Z,1.82
2023-01-19T14:23:47.584Z,1.54
2023-01-19T14:27:49.605Z,1.88
2023-01-19T14:32:13.756Z,1.44
2023-01-19T14:36:27.213Z,0.87
2023-01-19T14:40:29.895Z,0.80
2023-01-19T14:44:38.972Z,0.07
2023-01-19T14:48:46.724Z,0.16
2023-01-19T14:53:00.116Z,0.45
2023-01-19T14:57:01.727Z,0.07
2023-01-19T15:01:04.046Z,0.17
2023-01-19T15:05:06.317Z,-0.10
2023-01-19T15:09:10.801Z,0.22
2023-01-19T15:13:24.078Z,-0.09
2023-01-19T15:17:25.704Z,-0.34
2023-01-19T15:21:27.386Z,-0.16
2023-01-19T15:25:30.792Z,-0.22
2023-01-19T15:29:32.435Z,-0.08
2023-01-19T15:33:34.421Z,-0.28
2023-01-19T15:37:36.312Z,-0.57
2023-01-19T15:41:40.832Z,-0.43
2023-01-19T15:45:44.091Z,-0.37
2023-01-19T15:49:45.546Z,-0.18
2023-01-19T15:53:47.575Z,-0.43
2023-01-19T15:57:49.132Z,-0.32
2023-01-19T16:01:50.859Z,-0.34
2023-01-19T16:05:52.422Z,-0.42
2023-01-19T16:09:53.967Z,-0.48
2023-01-19T16:13:55.486Z,-0.47
2023-01-19T16:17:57.003Z,-0.31
2023-01-19T16:21:58.634Z,-0.39
2023-01-19T16:26:04.985Z,-0.44
2023-01-19T16:30:07.063Z,-0.20
2023-01-19T16:34:09.477Z,-0.60
2023-01-19T16:38:10.956Z,-0.37
2023-01-19T16:42:12.477Z,-0.27
2023-01-19T16:46:23.924Z,-0.29
2023-01-19T16:50:25.397Z,-0.57
2023-01-19T16:54:27.926Z,-0.17
2023-01-19T16:58:29.361Z,-0.57
2023-01-19T17:02:30.816Z,-0.40
2023-01-19T17:06:32.682Z,-0.58
2023-01-19T17:10:36.715Z,-0.30
2023-01-19T17:14:39.049Z,-0.29
2023-01-19T17:18:40.801Z,-0.49
2023-01-19T17:22:42.329Z,-0.31
2023-01-19T17:26:45.873Z,-0.49
2023-01-19T17:30:47.980Z,-0.51
2023-01-19T17:34:51.009Z,-0.25
2023-01-19T17:38:54.050Z,-0.15
2023-01-19T17:42:55.512Z,-0.12
2023-01-19T17:46:59.793Z,-0.29
2023-01-19T17:51:06.287Z,-0.18
2023-01-19T17:55:08.095Z,-0.54
2023-01-19T17:59:09.584Z,-0.26
2023-01-19T18:03:11.133Z,-0.24
2023-01-19T18:07:12.568Z,-0.19
2023-01-19T18:11:15.855Z,0.02
2023-01-19T18:15:17.461Z,0.07
2023-01-19T18:19:21.210Z,0.08
2023-01-19T18:23:22.725Z,0.09
2023-01-19T18:27:24.295Z,-0.02
2023-01-19T18:31:27.377Z,-0.05
2023-01-19T18:35:29.207Z,-0.30
2023-01-19T18:39:31.015Z,-0.45
2023-01-19T18:43:33.044Z,-0.32
2023-01-19T18:47:34.609Z,-0.09
2023-01-19T18:51:36.866Z,-0.12
2023-01-19T18:55:38.346Z,-0.20
2023-01-19T18:59:42.573Z,-0.33
2023-01-19T19:03:44.125Z,-0.33
2023-01-19T19:07:45.583Z,-0.39
2023-01-19T19:11:47.063Z,-0.17
2023-01-19T19:15:50.365Z,-0.54
2023-01-19T19:19:51.823Z,-0.65
2023-01-19T19:23:55.131Z,-0.70
2023-01-19T19:27:56.594Z,-0.60
2023-01-19T19:31:58.172Z,-0.53
2023-01-19T19:35:59.968Z,-0.40
2023-01-19T19:40:01.416Z,-0.07
2023-01-19T19:44:02.894Z,0.09
2023-01-19T19:48:04.514Z,0.10
2023-01-19T19:52:05.993Z,0.13
2023-01-19T19:56:10.383Z,-0.08
2023-01-19T20:00:12.566Z,-0.09
2023-01-19T20:04:14.350Z,0.12
2023-01-19T20:08:15.872Z,0.17
2023-01-19T20:12:17.377Z,0.16
2023-01-19T20:16:21.883Z,0.15
2023-01-19T20:20:24.626Z,0.02
2023-01-19T20:24:26.487Z,0.19
2023-01-19T20:28:27.949Z,0.10
2023-01-19T20:32:29.442Z,0.17
2023-01-19T20:36:31.254Z,0.02
2023-01-19T20:40:32.692Z,0.13
2023-01-19T20:44:34.099Z,0.13
2023-01-19T20:48:36.490Z,-0.08
2023-01-19T20:52:38.043Z,0.07
2023-01-19T20:56:41.259Z,0.30
2023-01-19T21:00:42.912Z,0.43
2023-01-19T21:04:44.582Z,-0.13
2023-01-19T21:08:47.047Z,-0.02
2023-01-19T21:12:48.483Z,0.08
2023-01-19T21:16:50.597Z,-0.12
2023-01-19T21:20:52.026Z,-0.11
2023-01-19T21:24:53.443Z,-0.08
2023-01-19T21:28:57.304Z,-0.03
2023-01-19T21:32:58.790Z,0.14
2023-01-19T21:37:01.490Z,-0.03
2023-01-19T21:41:08.295Z,-0.07
2023-01-19T21:45:09.956Z,-0.12
2023-01-19T21:49:17.305Z,0.02
2023-01-19T21:53:18.715Z,0.11
2023-01-19T21:57:20.205Z,0.12
2023-01-19T22:01:23.646Z,0.22
2023-01-19T22:05:25.311Z,-0.03
2023-01-19T22:09:26.710Z,-0.09
2023-01-19T22:13:28.140Z,0.11
2023-01-19T22:17:29.680Z,-0.01
2023-01-19T22:21:34.993Z,-0.04
2023-01-19T22:25:36.450Z,-0.07
2023-01-19T22:29:37.881Z,-0.01
2023-01-19T22:33:40.030Z,0.10
2023-01-19T22:37:41.442Z,0.20
2023-01-19T22:41:45.493Z,0.19
2023-01-19T22:45:46.975Z,0.17
2023-01-19T22:49:48.439Z,0.25
2023-01-19T22:53:49.950Z,0.35
2023-01-19T22:57:51.453Z,0.30
2023-01-19T23:01:53.229Z,0.07
2023-01-19T23:05:54.995Z,0.39
2023-01-19T23:09:56.428Z,0.43
2023-01-19T23:13:58.442Z,0.49
2023-01-19T23:17:59.956Z,0.22
2023-01-19T23:22:01.398Z,0.38
2023-01-19T23:26:05.093Z,0.60
2023-01-19T23:30:09.031Z,0.51
2023-01-19T23:34:12.221Z,0.50
2023-01-19T23:38:13.719Z,0.38
2023-01-19T23:42:15.159Z,0.44
2023-01-19T23:46:18.090Z,0.35
2023-01-19T23:50:19.671Z,0.30
2023-01-19T23:54:21.102Z,0.56
2023-01-19T23:58:22.655Z,0.22
